createdAt,value
2022-12-05T00:01:02.886Z,95185
2022-12-05T00:02:11.565Z,95180
2022-12-05T00:03:20.231Z,95182
2022-12-05T00:04:30.008Z,95184
2022-12-05T00:05:38.621Z,95184
2022-12-05T00:06:47.234Z,95183
2022-12-05T00:07:58.047Z,95178
2022-12-05T00:09:05.672Z,95184
2022-12-05T00:10:13.334Z,95193
2022-12-05T00:11:21.989Z,95192
2022-12-05T00:12:31.640Z,95196
2022-12-05T00:13:41.317Z,95196
2022-12-05T00:14:51.009Z,95201
2022-12-05T00:15:59.666Z,95209
2022-12-05T00:17:09.403Z,95204
2022-12-05T00:18:19.018Z,95195
2022-12-05T00:19:27.690Z,95198
2022-12-05T00:20:37.384Z,95195
2022-12-05T00:21:46.056Z,95196
2022-12-05T00:22:55.761Z,95195
2022-12-05T00:24:05.440Z,95201
2022-12-05T00:25:15.089Z,95207
2022-12-05T00:26:23.757Z,95206
2022-12-05T00:27:32.412Z,95206
2022-12-05T00:28:42.084Z,95211
2022-12-05T00:29:50.759Z,95213
2022-12-05T00:30:59.427Z,95215
2022-12-05T00:32:08.196Z,95215
2022-12-05T00:33:17.817Z,95220
2022-12-05T00:34:27.481Z,95215
2022-12-05T00:35:35.144Z,95213
2022-12-05T00:36:44.784Z,95209
2022-12-05T00:37:54.518Z,95206
2022-12-05T00:39:02.148Z,95207
2022-12-05T00:40:11.825Z,95205
2022-12-05T00:41:20.477Z,95209
2022-12-05T00:42:29.158Z,95209
2022-12-05T00:43:38.831Z,95218
2022-12-05T00:44:46.491Z,95223
2022-12-05T00:45:56.295Z,95225
2022-12-05T00:47:05.805Z,95226
2022-12-05T00:48:14.516Z,95228
2022-12-05T00:49:24.232Z,95224
2022-12-05T00:50:33.891Z,95221
2022-12-05T00:51:42.549Z,95221
2022-12-05T00:52:52.222Z,95224
2022-12-05T00:54:00.935Z,95224
2022-12-05T00:55:10.718Z,95224
2022-12-05T00:56:20.393Z,95220
2022-12-05T00:57:28.053Z,95222
2022-12-05T00:58:36.711Z,95226
2022-12-05T00:59:45.376Z,95226
2022-12-05T01:00:54.086Z,95233
2022-12-05T01:02:03.750Z,95231
2022-12-05T01:03:11.419Z,95231
2022-12-05T01:04:21.066Z,95228
2022-12-05T01:05:30.789Z,95228
2022-12-05T01:06:39.467Z,95224
2022-12-05T01:07:49.266Z,95230
2022-12-05T01:08:58.797Z,95226
2022-12-05T01:10:07.485Z,95229
2022-12-05T01:11:17.127Z,95231
2022-12-05T01:12:25.801Z,95227
2022-12-05T01:13:34.445Z,95232
2022-12-05T01:14:44.146Z,95230
2022-12-05T01:15:52.789Z,95240
2022-12-05T01:17:02.519Z,95241
2022-12-05T01:18:12.144Z,95243
2022-12-05T01:19:18.788Z,95246
2022-12-05T01:20:28.496Z,95247
2022-12-05T01:21:37.190Z,95252
2022-12-05T01:22:46.844Z,95259
2022-12-05T01:23:56.525Z,95267
2022-12-05T01:25:05.252Z,95269
2022-12-05T01:26:13.962Z,95269
2022-12-05T01:27:23.578Z,95272
2022-12-05T01:28:32.246Z,95275
2022-12-05T01:29:41.890Z,95276
2022-12-05T01:30:49.550Z,95282
2022-12-05T01:31:58.286Z,95283
2022-12-05T01:33:07.877Z,95285
2022-12-05T01:34:15.552Z,95281
2022-12-05T01:35:25.236Z,95272
2022-12-05T01:36:33.909Z,95271
2022-12-05T01:37:42.628Z,95269
2022-12-05T01:38:52.288Z,95262
2022-12-05T01:40:00.049Z,95266
2022-12-05T01:41:09.628Z,95269
2022-12-05T01:42:23.171Z,95271
2022-12-05T01:43:29.943Z,95267
2022-12-05T01:44:38.612Z,95264
2022-12-05T01:45:47.338Z,95268
2022-12-05T01:46:56.007Z,95265
2022-12-05T01:48:05.633Z,95272
2022-12-05T01:49:14.287Z,95273
2022-12-05T01:50:22.935Z,95280
2022-12-05T01:51:32.604Z,95284
2022-12-05T01:52:42.319Z,95286
2022-12-05T01:53:50.980Z,95286
2022-12-05T01:54:59.685Z,95289
2022-12-05T01:56:08.323Z,95291
2022-12-05T01:57:18.043Z,95295
2022-12-05T01:58:27.724Z,95299
2022-12-05T01:59:36.354Z,95299
2022-12-05T02:00:46.042Z,95303
2022-12-05T02:01:53.677Z,95303
2022-12-05T02:03:02.327Z,95305
2022-12-05T02:04:12.016Z,95298
2022-12-05T02:05:20.719Z,95296
2022-12-05T02:06:30.418Z,95300
2022-12-05T02:07:40.103Z,95290
2022-12-05T02:08:48.710Z,95291
2022-12-05T02:09:58.552Z,95298
2022-12-05T02:11:07.046Z,95304
2022-12-05T02:12:16.702Z,95309
2022-12-05T02:13:26.929Z,95314
2022-12-05T02:14:34.042Z,95318
2022-12-05T02:15:43.713Z,95324
2022-12-05T02:16:52.373Z,95331
2022-12-05T02:18:01.044Z,95339
2022-12-05T02:19:10.719Z,95341
2022-12-05T02:20:18.369Z,95341
2022-12-05T02:21:28.060Z,95342
2022-12-05T02:22:36.721Z,95345
2022-12-05T02:23:45.388Z,95347
2022-12-05T02:24:54.030Z,95343
2022-12-05T02:26:02.679Z,95336
2022-12-05T02:27:12.363Z,95337
2022-12-05T02:28:20.027Z,95335
2022-12-05T02:29:29.760Z,95330
2022-12-05T02:30:39.410Z,95327
2022-12-05T02:31:47.055Z,95333
2022-12-05T02:32:55.733Z,95336
2022-12-05T02:34:05.383Z,95337
2022-12-05T02:35:15.042Z,95337
2022-12-05T02:36:24.697Z,95338
2022-12-05T02:37:32.384Z,95339
2022-12-05T02:38:41.076Z,95339
2022-12-05T02:39:50.758Z,95346
2022-12-05T02:40:58.409Z,95349
2022-12-05T02:42:08.072Z,95353
2022-12-05T02:43:15.741Z,95359
2022-12-05T02:44:24.438Z,95356
2022-12-05T02:45:34.153Z,95355
2022-12-05T02:46:42.792Z,95355
2022-12-05T02:47:51.436Z,95361
2022-12-05T02:49:01.121Z,95362
2022-12-05T02:50:08.851Z,95357
2022-12-05T02:51:17.516Z,95358
2022-12-05T02:52:27.190Z,95349
2022-12-05T02:53:35.851Z,95346
2022-12-05T02:54:44.519Z,95350
2022-12-05T02:55:52.223Z,95350
2022-12-05T02:57:00.878Z,95348
2022-12-05T02:58:10.569Z,95356
2022-12-05T02:59:23.444Z,95354
2022-12-05T03:00:28.865Z,95359
2022-12-05T03:01:37.727Z,95359
2022-12-05T03:02:46.223Z,95361
2022-12-05T03:03:54.885Z,95362
2022-12-05T03:05:02.538Z,95366
2022-12-05T03:06:11.191Z,95361
2022-12-05T03:07:20.865Z,95365
2022-12-05T03:08:28.535Z,95362
2022-12-05T03:09:37.193Z,95364
2022-12-05T03:10:45.855Z,95373
2022-12-05T03:11:55.526Z,95378
2022-12-05T03:13:05.254Z,95381
2022-12-05T03:14:12.915Z,95382
2022-12-05T03:15:22.569Z,95391
2022-12-05T03:16:32.267Z,95393
2022-12-05T03:17:39.879Z,95395
2022-12-05T03:18:48.594Z,95404
2022-12-05T03:19:58.458Z,95407
2022-12-05T03:21:07.870Z,95416
2022-12-05T03:22:17.563Z,95415
2022-12-05T03:23:25.215Z,95415
2022-12-05T03:24:33.874Z,95417
2022-12-05T03:25:43.546Z,95418
2022-12-05T03:26:51.228Z,95413
2022-12-05T03:28:00.898Z,95415
2022-12-05T03:29:09.586Z,95424
2022-12-05T03:30:18.286Z,95420
2022-12-05T03:31:27.992Z,95418
2022-12-05T03:32:35.606Z,95417
2022-12-05T03:33:45.290Z,95414
2022-12-05T03:34:54.981Z,95424
2022-12-05T03:36:02.634Z,95421
2022-12-05T03:37:11.349Z,95420
2022-12-05T03:38:20.017Z,95426
2022-12-05T03:39:28.728Z,95427
2022-12-05T03:40:38.389Z,95426
2022-12-05T03:41:46.191Z,95420
2022-12-05T03:42:54.862Z,95424
2022-12-05T03:44:03.589Z,95428
2022-12-05T03:45:12.251Z,95438
2022-12-05T03:46:20.942Z,95437
2022-12-05T03:47:29.629Z,95440
2022-12-05T03:48:38.288Z,95443
2022-12-05T03:49:47.975Z,95445
2022-12-05T03:50:57.733Z,95437
2022-12-05T03:52:06.359Z,95440
2022-12-05T03:53:20.548Z,95441
2022-12-05T03:54:25.679Z,95434
2022-12-05T03:55:34.346Z,95442
2022-12-05T03:56:43.026Z,95441
2022-12-05T03:57:51.677Z,95440
2022-12-05T03:59:01.421Z,95444
2022-12-05T04:00:10.076Z,95441
2022-12-05T04:01:20.635Z,95447
2022-12-05T04:02:29.286Z,95446
2022-12-05T04:03:39.128Z,95441
2022-12-05T04:04:47.628Z,95433
2022-12-05T04:05:56.295Z,95436
2022-12-05T04:07:05.673Z,95436
2022-12-05T04:08:15.349Z,95435
2022-12-05T04:09:23.973Z,95430
2022-12-05T04:10:32.690Z,95433
2022-12-05T04:11:42.355Z,95438
2022-12-05T04:12:51.057Z,95439
2022-12-05T04:13:59.723Z,95444
2022-12-05T04:15:08.421Z,95444
2022-12-05T04:16:17.229Z,95449
2022-12-05T04:17:26.861Z,95451
2022-12-05T04:18:36.516Z,95458
2022-12-05T04:19:45.182Z,95458
2022-12-05T04:20:52.830Z,95460
2022-12-05T04:22:03.518Z,95463
2022-12-05T04:23:13.216Z,95465
2022-12-05T04:24:20.850Z,95461
2022-12-05T04:25:29.513Z,95464
2022-12-05T04:26:38.184Z,95463
2022-12-05T04:27:46.855Z,95460
2022-12-05T04:28:56.566Z,95467
2022-12-05T04:30:04.220Z,95464
2022-12-05T04:31:13.922Z,95467
2022-12-05T04:32:23.538Z,95468
2022-12-05T04:33:31.226Z,95468
2022-12-05T04:34:39.882Z,95470
2022-12-05T04:35:49.548Z,95472
2022-12-05T04:36:58.224Z,95472
2022-12-05T04:38:07.891Z,95466
2022-12-05T04:39:18.296Z,95460
2022-12-05T04:40:26.242Z,95457
2022-12-05T04:41:35.915Z,95467
2022-12-05T04:42:43.687Z,95464
2022-12-05T04:43:52.344Z,95463
2022-12-05T04:45:01.086Z,95466
2022-12-05T04:46:09.751Z,95460
2022-12-05T04:47:19.398Z,95460
2022-12-05T04:48:28.057Z,95457
2022-12-05T04:49:37.593Z,95456
2022-12-05T04:50:48.270Z,95456
2022-12-05T04:51:56.923Z,95456
2022-12-05T04:53:06.607Z,95455
2022-12-05T04:54:16.250Z,95451
2022-12-05T04:55:24.956Z,95451
2022-12-05T04:56:33.628Z,95447
2022-12-05T04:57:43.286Z,95444
2022-12-05T04:58:51.952Z,95443
2022-12-05T05:00:01.659Z,95442
2022-12-05T05:01:09.305Z,95449
2022-12-05T05:02:17.981Z,95448
2022-12-05T05:03:27.667Z,95450
2022-12-05T05:04:36.353Z,95448
2022-12-05T05:05:46.008Z,95450
2022-12-05T05:06:55.682Z,95443
2022-12-05T05:08:06.212Z,95448
2022-12-05T05:09:15.840Z,95449
2022-12-05T05:10:23.489Z,95444
2022-12-05T05:11:33.205Z,95448
2022-12-05T05:12:42.829Z,95444
2022-12-05T05:13:51.511Z,95449
2022-12-05T05:15:01.176Z,95449
2022-12-05T05:16:09.883Z,95457
2022-12-05T05:17:19.517Z,95461
2022-12-05T05:18:29.184Z,95464
2022-12-05T05:19:36.856Z,95461
2022-12-05T05:20:45.533Z,95463
2022-12-05T05:21:55.188Z,95471
2022-12-05T05:23:02.843Z,95471
2022-12-05T05:24:12.520Z,95476
2022-12-05T05:25:20.192Z,95474
2022-12-05T05:26:29.878Z,95472
2022-12-05T05:27:39.613Z,95478
2022-12-05T05:28:47.254Z,95476
2022-12-05T05:29:56.218Z,95479
2022-12-05T05:31:05.650Z,95483
2022-12-05T05:32:14.270Z,95480
2022-12-05T05:33:23.939Z,95481
2022-12-05T05:34:32.656Z,95479
2022-12-05T05:35:41.316Z,95480
2022-12-05T05:36:51.026Z,95474
2022-12-05T05:37:59.695Z,95473
2022-12-05T05:39:08.344Z,95471
2022-12-05T05:40:17.022Z,95469
2022-12-05T05:41:25.692Z,95470
2022-12-05T05:42:35.376Z,95472
2022-12-05T05:43:44.091Z,95472
2022-12-05T05:44:52.752Z,95469
2022-12-05T05:46:02.417Z,95464
2022-12-05T05:47:11.078Z,95465
2022-12-05T05:48:20.794Z,95465
2022-12-05T05:49:29.524Z,95462
2022-12-05T05:50:38.194Z,95465
2022-12-05T05:51:46.864Z,95470
2022-12-05T05:52:54.516Z,95471
2022-12-05T05:54:03.220Z,95476
2022-12-05T05:55:12.874Z,95475
2022-12-05T05:56:22.260Z,95470
2022-12-05T05:57:31.223Z,95465
2022-12-05T05:58:39.891Z,95466
2022-12-05T05:59:49.606Z,95476
2022-12-05T06:01:00.245Z,95476
2022-12-05T06:02:09.009Z,95483
2022-12-05T06:03:18.820Z,95483
2022-12-05T06:04:28.439Z,95490
2022-12-05T06:05:37.083Z,95491
2022-12-05T06:06:47.726Z,95484
2022-12-05T06:07:57.510Z,95490
2022-12-05T06:09:06.047Z,95493
2022-12-05T06:10:15.708Z,95498
2022-12-05T06:11:26.057Z,95498
2022-12-05T06:12:33.030Z,95502
2022-12-05T06:13:42.730Z,95505
2022-12-05T06:14:51.417Z,95506
2022-12-05T06:16:00.202Z,95505
2022-12-05T06:17:09.804Z,95511
2022-12-05T06:18:18.515Z,95513
2022-12-05T06:19:28.148Z,95514
2022-12-05T06:20:37.815Z,95511
2022-12-05T06:21:47.470Z,95509
2022-12-05T06:22:56.155Z,95514
2022-12-05T06:24:04.803Z,95515
2022-12-05T06:25:14.465Z,95514
2022-12-05T06:26:23.143Z,95508
2022-12-05T06:27:31.781Z,95506
2022-12-05T06:28:40.480Z,95509
2022-12-05T06:29:50.253Z,95506
2022-12-05T06:31:00.125Z,95514
2022-12-05T06:32:07.883Z,95510
2022-12-05T06:33:16.452Z,95514
2022-12-05T06:34:26.144Z,95512
2022-12-05T06:35:34.818Z,95510
2022-12-05T06:36:44.483Z,95512
2022-12-05T06:37:53.165Z,95511
2022-12-05T06:39:01.832Z,95518
2022-12-05T06:40:11.543Z,95524
2022-12-05T06:41:21.221Z,95524
2022-12-05T06:42:28.872Z,95527
2022-12-05T06:43:38.560Z,95522
2022-12-05T06:44:47.234Z,95522
2022-12-05T06:45:56.946Z,95529
2022-12-05T06:47:06.579Z,95527
2022-12-05T06:48:15.261Z,95530
2022-12-05T06:49:29.405Z,95535
2022-12-05T06:50:35.541Z,95539
2022-12-05T06:51:44.293Z,95536
2022-12-05T06:52:53.967Z,95535
2022-12-05T06:54:02.647Z,95539
2022-12-05T06:55:12.312Z,95541
2022-12-05T06:56:20.968Z,95543
2022-12-05T06:57:30.659Z,95540
2022-12-05T06:58:40.318Z,95536
2022-12-05T06:59:46.972Z,95536
2022-12-05T07:00:55.662Z,95544
2022-12-05T07:02:05.357Z,95543
2022-12-05T07:03:13.985Z,95543
2022-12-05T07:04:22.674Z,95544
2022-12-05T07:05:31.312Z,95551
2022-12-05T07:06:39.999Z,95546
2022-12-05T07:07:50.704Z,95555
2022-12-05T07:08:58.323Z,95551
2022-12-05T07:10:07.978Z,95552
2022-12-05T07:11:17.640Z,95554
2022-12-05T07:12:24.287Z,95553
2022-12-05T07:13:32.945Z,95557
2022-12-05T07:14:49.817Z,95553
2022-12-05T07:15:52.247Z,95550
2022-12-05T07:17:01.909Z,95557
2022-12-05T07:18:10.613Z,95550
2022-12-05T07:19:19.282Z,95550
2022-12-05T07:20:38.261Z,95550
2022-12-05T07:21:39.610Z,95554
2022-12-05T07:22:48.282Z,95555
2022-12-05T07:23:56.941Z,95548
2022-12-05T07:25:05.591Z,95550
2022-12-05T07:26:15.288Z,95549
2022-12-05T07:27:27.135Z,95550
2022-12-05T07:28:32.595Z,95549
2022-12-05T07:29:42.318Z,95556
2022-12-05T07:30:51.000Z,95558
2022-12-05T07:32:00.887Z,95560
2022-12-05T07:33:09.385Z,95558
2022-12-05T07:34:19.085Z,95563
2022-12-05T07:35:28.834Z,95563
2022-12-05T07:36:36.489Z,95561
2022-12-05T07:37:46.115Z,95566
2022-12-05T07:38:55.795Z,95559
2022-12-05T07:40:04.453Z,95565
2022-12-05T07:41:14.133Z,95566
2022-12-05T07:42:22.799Z,95570
2022-12-05T07:43:32.466Z,95572
2022-12-05T07:44:42.222Z,95579
2022-12-05T07:45:50.956Z,95577
2022-12-05T07:46:59.531Z,95583
2022-12-05T07:48:10.131Z,95588
2022-12-05T07:49:19.856Z,95589
2022-12-05T07:50:29.507Z,95595
2022-12-05T07:51:39.233Z,95594
2022-12-05T07:52:47.858Z,95595
2022-12-05T07:53:57.549Z,95588
2022-12-05T07:55:06.282Z,95591
2022-12-05T07:56:14.943Z,95581
2022-12-05T07:57:24.599Z,95577
2022-12-05T07:58:32.261Z,95580
2022-12-05T07:59:40.936Z,95577
2022-12-05T08:00:49.671Z,95575
2022-12-05T08:01:57.318Z,95576
2022-12-05T08:03:06.961Z,95581
2022-12-05T08:04:15.657Z,95583
2022-12-05T08:05:23.283Z,95580
2022-12-05T08:06:32.966Z,95587
2022-12-05T08:07:42.738Z,95587
2022-12-05T08:08:52.325Z,95589
2022-12-05T08:10:02.214Z,95592
2022-12-05T08:11:10.897Z,95600
2022-12-05T08:12:20.609Z,95595
2022-12-05T08:13:30.266Z,95599
2022-12-05T08:14:39.927Z,95597
2022-12-05T08:15:49.603Z,95601
2022-12-05T08:16:59.358Z,95602
2022-12-05T08:18:08.950Z,95605
2022-12-05T08:19:17.691Z,95603
2022-12-05T08:20:27.357Z,95602
2022-12-05T08:21:36.029Z,95605
2022-12-05T08:22:45.726Z,95609
2022-12-05T08:23:54.391Z,95613
2022-12-05T08:25:02.043Z,95615
2022-12-05T08:26:10.697Z,95610
2022-12-05T08:27:20.372Z,95605
2022-12-05T08:28:28.036Z,95611
2022-12-05T08:29:36.744Z,95612
2022-12-05T08:30:45.465Z,95618
2022-12-05T08:31:54.082Z,95617
2022-12-05T08:33:03.761Z,95619
2022-12-05T08:34:11.431Z,95625
2022-12-05T08:35:20.101Z,95632
2022-12-05T08:36:29.779Z,95629
2022-12-05T08:37:39.483Z,95632
2022-12-05T08:38:49.171Z,95632
2022-12-05T08:39:59.084Z,95630
2022-12-05T08:41:07.483Z,95630
2022-12-05T08:42:17.142Z,95627
2022-12-05T08:43:24.806Z,95626
2022-12-05T08:44:33.461Z,95632
2022-12-05T08:45:43.254Z,95634
2022-12-05T08:46:51.870Z,95637
2022-12-05T08:48:00.559Z,95638
2022-12-05T08:49:09.220Z,95638
2022-12-05T08:50:17.891Z,95634
2022-12-05T08:51:28.542Z,95640
2022-12-05T08:52:36.246Z,95643
2022-12-05T08:53:45.912Z,95638
2022-12-05T08:54:55.931Z,95639
2022-12-05T08:56:04.281Z,95640
2022-12-05T08:57:11.942Z,95638
2022-12-05T08:58:20.666Z,95636
2022-12-05T08:59:29.343Z,95638
2022-12-05T09:00:39.007Z,95640
2022-12-05T09:01:47.702Z,95645
2022-12-05T09:02:56.345Z,95643
2022-12-05T09:04:06.005Z,95639
2022-12-05T09:05:27.319Z,95642
2022-12-05T09:06:24.322Z,95644
2022-12-05T09:07:33.045Z,95642
2022-12-05T09:08:42.668Z,95641
2022-12-05T09:09:52.352Z,95644
2022-12-05T09:11:02.034Z,95644
2022-12-05T09:12:10.694Z,95644
2022-12-05T09:13:20.377Z,95644
2022-12-05T09:14:28.032Z,95646
2022-12-05T09:15:36.780Z,95643
2022-12-05T09:16:45.464Z,95643
2022-12-05T09:17:55.147Z,95640
2022-12-05T09:19:04.803Z,95640
2022-12-05T09:20:13.484Z,95644
2022-12-05T09:21:22.183Z,95648
2022-12-05T09:22:31.843Z,95652
2022-12-05T09:23:40.513Z,95653
2022-12-05T09:24:49.184Z,95648
2022-12-05T09:25:57.840Z,95652
2022-12-05T09:27:06.572Z,95648
2022-12-05T09:28:16.220Z,95648
2022-12-05T09:29:24.891Z,95652
2022-12-05T09:30:34.549Z,95647
2022-12-05T09:31:44.344Z,95644
2022-12-05T09:32:51.889Z,95649
2022-12-05T09:34:00.541Z,95644
2022-12-05T09:35:10.223Z,95642
2022-12-05T09:36:18.873Z,95643
2022-12-05T09:37:39.051Z,95644
2022-12-05T09:38:39.219Z,95652
2022-12-05T09:39:47.883Z,95654
2022-12-05T09:40:59.025Z,95655
2022-12-05T09:42:05.269Z,95656
2022-12-05T09:43:14.923Z,95654
2022-12-05T09:44:24.604Z,95658
2022-12-05T09:45:33.264Z,95661
2022-12-05T09:46:42.974Z,95664
2022-12-05T09:47:50.612Z,95666
2022-12-05T09:49:00.293Z,95670
2022-12-05T09:50:09.985Z,95664
2022-12-05T09:51:18.650Z,95670
2022-12-05T09:52:27.324Z,95674
2022-12-05T09:53:35.981Z,95674
2022-12-05T09:54:44.654Z,95670
2022-12-05T09:55:54.362Z,95670
2022-12-05T09:57:02.025Z,95675
2022-12-05T09:58:11.687Z,95671
2022-12-05T09:59:21.372Z,95671
2022-12-05T10:00:30.005Z,95668
2022-12-05T10:01:38.851Z,95672
2022-12-05T10:02:47.447Z,95668
2022-12-05T10:03:57.109Z,95670
2022-12-05T10:05:05.972Z,95672
2022-12-05T10:06:14.432Z,95673
2022-12-05T10:07:24.109Z,95677
2022-12-05T10:08:33.786Z,95674
2022-12-05T10:09:42.458Z,95669
2022-12-05T10:10:51.186Z,95668
2022-12-05T10:11:59.846Z,95668
2022-12-05T10:13:08.559Z,95667
2022-12-05T10:14:18.226Z,95668
2022-12-05T10:15:27.024Z,95670
2022-12-05T10:16:36.581Z,95666
2022-12-05T10:17:45.216Z,95669
2022-12-05T10:18:54.915Z,95664
2022-12-05T10:20:04.585Z,95665
2022-12-05T10:21:13.257Z,95666
2022-12-05T10:22:21.904Z,95668
2022-12-05T10:23:57.371Z,95666
2022-12-05T10:24:41.224Z,95664
2022-12-05T10:25:50.901Z,95660
2022-12-05T10:26:59.613Z,95662
2022-12-05T10:28:09.264Z,95664
2022-12-05T10:29:18.933Z,95668
2022-12-05T10:30:27.627Z,95665
2022-12-05T10:31:36.454Z,95664
2022-12-05T10:32:48.172Z,95664
2022-12-05T10:33:54.647Z,95664
2022-12-05T10:35:04.333Z,95659
2022-12-05T10:36:12.037Z,95663
2022-12-05T10:37:20.708Z,95666
2022-12-05T10:38:30.367Z,95663
2022-12-05T10:39:39.027Z,95662
2022-12-05T10:40:47.697Z,95661
2022-12-05T10:41:55.421Z,95662
2022-12-05T10:43:05.076Z,95663
2022-12-05T10:44:14.753Z,95667
2022-12-05T10:45:23.414Z,95664
2022-12-05T10:46:33.104Z,95662
2022-12-05T10:47:42.797Z,95662
2022-12-05T10:48:50.484Z,95662
2022-12-05T10:49:59.157Z,95661
2022-12-05T10:51:08.812Z,95658
2022-12-05T10:52:17.485Z,95657
2022-12-05T10:53:27.175Z,95662
2022-12-05T10:54:34.846Z,95656
2022-12-05T10:56:00.316Z,95656
2022-12-05T10:56:55.152Z,95652
2022-12-05T10:58:02.813Z,95646
2022-12-05T10:59:12.478Z,95645
2022-12-05T11:00:23.154Z,95646
2022-12-05T11:01:30.916Z,95645
2022-12-05T11:02:40.466Z,95645
2022-12-05T11:03:49.169Z,95646
2022-12-05T11:04:59.237Z,95641
2022-12-05T11:06:08.507Z,95645
2022-12-05T11:07:17.179Z,95641
2022-12-05T11:08:55.743Z,95647
2022-12-05T11:09:37.478Z,95644
2022-12-05T11:10:46.183Z,95638
2022-12-05T11:11:54.909Z,95644
2022-12-05T11:13:02.580Z,95644
2022-12-05T11:14:11.233Z,95643
2022-12-05T11:15:20.897Z,95647
2022-12-05T11:16:30.702Z,95649
2022-12-05T11:17:39.280Z,95649
2022-12-05T11:18:48.938Z,95651
2022-12-05T11:19:58.629Z,95646
2022-12-05T11:21:08.292Z,95644
2022-12-05T11:22:15.988Z,95650
2022-12-05T11:23:24.652Z,95647
2022-12-05T11:24:34.323Z,95646
2022-12-05T11:25:42.994Z,95643
2022-12-05T11:26:51.650Z,95645
2022-12-05T11:28:01.542Z,95644
2022-12-05T11:29:08.975Z,95642
2022-12-05T11:30:18.649Z,95640
2022-12-05T11:31:26.341Z,95635
2022-12-05T11:32:34.981Z,95638
2022-12-05T11:33:44.678Z,95636
2022-12-05T11:34:53.334Z,95634
2022-12-05T11:36:02.017Z,95636
2022-12-05T11:37:11.680Z,95641
2022-12-05T11:38:21.361Z,95636
2022-12-05T11:39:31.056Z,95636
2022-12-05T11:40:40.736Z,95628
2022-12-05T11:41:49.413Z,95632
2022-12-05T11:42:59.080Z,95634
2022-12-05T11:44:07.744Z,95633
2022-12-05T11:45:16.424Z,95635
2022-12-05T11:46:26.925Z,95643
2022-12-05T11:47:33.738Z,95637
2022-12-05T11:48:43.436Z,95638
2022-12-05T11:49:52.089Z,95639
2022-12-05T11:51:01.771Z,95638
2022-12-05T11:52:11.453Z,95639
2022-12-05T11:53:20.091Z,95640
2022-12-05T11:54:56.574Z,95638
2022-12-05T11:55:40.431Z,95642
2022-12-05T11:56:50.111Z,95635
2022-12-05T11:57:59.788Z,95630
2022-12-05T11:59:07.438Z,95634
2022-12-05T12:00:17.105Z,95629
2022-12-05T12:01:26.839Z,95628
2022-12-05T12:02:35.585Z,95622
2022-12-05T12:03:44.234Z,95626
2022-12-05T12:04:52.847Z,95627
2022-12-05T12:06:01.545Z,95632
2022-12-05T12:07:11.219Z,95634
2022-12-05T12:08:20.033Z,95631
2022-12-05T12:09:28.639Z,95636
2022-12-05T12:10:38.297Z,95635
2022-12-05T12:11:45.948Z,95634
2022-12-05T12:12:55.631Z,95640
2022-12-05T12:14:03.290Z,95635
2022-12-05T12:15:10.940Z,95638
2022-12-05T12:16:19.682Z,95637
2022-12-05T12:17:28.298Z,95642
2022-12-05T12:18:37.962Z,95639
2022-12-05T12:19:46.673Z,95642
2022-12-05T12:20:56.326Z,95643
2022-12-05T12:22:05.993Z,95635
2022-12-05T12:23:14.657Z,95635
2022-12-05T12:24:24.363Z,95633
2022-12-05T12:25:34.015Z,95634
2022-12-05T12:26:42.684Z,95633
2022-12-05T12:27:52.359Z,95635
2022-12-05T12:29:02.984Z,95636
2022-12-05T12:30:12.650Z,95639
2022-12-05T12:31:22.398Z,95631
2022-12-05T12:32:31.043Z,95637
2022-12-05T12:33:39.746Z,95634
2022-12-05T12:34:49.420Z,95635
2022-12-05T12:35:59.088Z,95634
2022-12-05T12:37:08.775Z,95632
2022-12-05T12:38:18.436Z,95630
2022-12-05T12:39:27.115Z,95626
2022-12-05T12:40:36.764Z,95617
2022-12-05T12:41:45.440Z,95619
2022-12-05T12:42:54.143Z,95616
2022-12-05T12:44:02.805Z,95619
2022-12-05T12:45:12.487Z,95615
2022-12-05T12:46:22.175Z,95615
2022-12-05T12:47:31.816Z,95612
2022-12-05T12:48:40.525Z,95614
2022-12-05T12:49:50.197Z,95613
2022-12-05T12:50:58.859Z,95615
2022-12-05T12:52:07.523Z,95615
2022-12-05T12:53:16.264Z,95617
2022-12-05T12:54:47.234Z,95613
2022-12-05T12:55:36.564Z,95611
2022-12-05T12:56:45.206Z,95605
2022-12-05T12:57:53.867Z,95615
2022-12-05T12:59:03.554Z,95618
2022-12-05T13:00:12.235Z,95617
2022-12-05T13:01:21.931Z,95614
2022-12-05T13:02:30.660Z,95617
2022-12-05T13:03:39.364Z,95613
2022-12-05T13:04:50.006Z,95617
2022-12-05T13:05:57.703Z,95610
2022-12-05T13:07:06.348Z,95621
2022-12-05T13:08:16.039Z,95619
2022-12-05T13:09:23.668Z,95623
2022-12-05T13:10:33.356Z,95624
2022-12-05T13:11:42.092Z,95621
2022-12-05T13:12:51.737Z,95619
2022-12-05T13:14:01.410Z,95622
2022-12-05T13:15:10.071Z,95624
2022-12-05T13:16:19.760Z,95623
2022-12-05T13:17:29.439Z,95624
2022-12-05T13:18:37.101Z,95617
2022-12-05T13:19:45.774Z,95618
2022-12-05T13:20:55.474Z,95616
2022-12-05T13:22:05.160Z,95615
2022-12-05T13:23:14.833Z,95613
2022-12-05T13:24:23.612Z,95615
2022-12-05T13:25:32.182Z,95609
2022-12-05T13:26:41.856Z,95613
2022-12-05T13:27:50.664Z,95608
2022-12-05T13:28:59.244Z,95609
2022-12-05T13:30:13.382Z,95614
2022-12-05T13:31:17.601Z,95615
2022-12-05T13:32:27.219Z,95613
2022-12-05T13:33:34.885Z,95618
2022-12-05T13:34:43.557Z,95625
2022-12-05T13:35:53.230Z,95615
2022-12-05T13:37:01.917Z,95617
2022-12-05T13:38:10.599Z,95623
2022-12-05T13:39:19.293Z,95616
2022-12-05T13:40:27.986Z,95616
2022-12-05T13:41:36.648Z,95611
2022-12-05T13:42:45.312Z,95607
2022-12-05T13:44:05.675Z,95607
2022-12-05T13:45:05.635Z,95614
2022-12-05T13:46:13.405Z,95613
2022-12-05T13:47:23.025Z,95613
2022-12-05T13:48:32.700Z,95610
2022-12-05T13:49:41.349Z,95616
2022-12-05T13:50:51.015Z,95616
2022-12-05T13:51:59.752Z,95619
2022-12-05T13:53:08.444Z,95622
2022-12-05T13:54:18.142Z,95622
2022-12-05T13:55:29.633Z,95613
2022-12-05T13:56:36.447Z,95617
2022-12-05T13:57:45.288Z,95613
2022-12-05T13:58:54.052Z,95611
2022-12-05T14:00:03.743Z,95611
2022-12-05T14:01:13.450Z,95617
2022-12-05T14:02:22.064Z,95630
2022-12-05T14:03:31.785Z,95631
2022-12-05T14:04:39.458Z,95631
2022-12-05T14:05:48.109Z,95635
2022-12-05T14:06:56.785Z,95635
2022-12-05T14:08:05.520Z,95638
2022-12-05T14:09:15.151Z,95638
2022-12-05T14:10:23.799Z,95633
2022-12-05T14:11:33.466Z,95627
2022-12-05T14:12:42.139Z,95633
2022-12-05T14:13:50.842Z,95623
2022-12-05T14:15:01.479Z,95621
2022-12-05T14:16:10.234Z,95616
2022-12-05T14:17:18.845Z,95613
2022-12-05T14:18:27.661Z,95616
2022-12-05T14:19:36.193Z,95626
2022-12-05T14:20:45.876Z,95634
2022-12-05T14:21:53.557Z,95632
2022-12-05T14:23:03.223Z,95634
2022-12-05T14:24:12.894Z,95634
2022-12-05T14:25:20.556Z,95637
2022-12-05T14:26:29.255Z,95640
2022-12-05T14:27:38.934Z,95645
2022-12-05T14:28:47.607Z,95644
2022-12-05T14:29:57.641Z,95645
2022-12-05T14:31:05.982Z,95643
2022-12-05T14:32:15.689Z,95643
2022-12-05T14:33:24.363Z,95641
2022-12-05T14:34:32.033Z,95644
2022-12-05T14:35:40.689Z,95645
2022-12-05T14:36:49.350Z,95650
2022-12-05T14:37:58.045Z,95645
2022-12-05T14:39:07.733Z,95644
2022-12-05T14:40:16.403Z,95643
2022-12-05T14:41:25.054Z,95645
2022-12-05T14:42:34.727Z,95640
2022-12-05T14:43:43.406Z,95639
2022-12-05T14:44:51.068Z,95644
2022-12-05T14:46:00.886Z,95641
2022-12-05T14:47:10.422Z,95645
2022-12-05T14:48:20.109Z,95647
2022-12-05T14:49:29.765Z,95640